Time,TemperatureF,DewpointF,PressureIn,WindDirection,WindDirectionDegrees,WindSpeedMPH,WindSpeedGustMPH,Humidity,HourlyPrecipIn,Conditions,Clouds,dailyrainin,SoftwareType,DateUTC
2013-01-19 00:06:00,-2.0,-4.0,30.38,NW,310,7.0,7.0,92,-99.99,,,-99.99,,2013-01-19 07:06:00,
2013-01-19 00:16:00,-2.0,-4.0,30.38,NW,320,7.0,8.0,92,-99.99,,,-99.99,,2013-01-19 07:16:00,
2013-01-19 00:26:00,-3.0,-4.0,30.39,West,270,4.0,6.0,92,-99.99,,,-99.99,,2013-01-19 07:26:00,
2013-01-19 00:31:00,-3.0,-5.0,30.39,NW,320,9.0,11.0,92,-99.99,,,-99.99,,2013-01-19 07:31:00,
2013-01-19 00:41:00,-3.0,-5.0,30.38,NNW,330,9.0,9.0,92,-99.99,,,-99.99,,2013-01-19 07:41:00,
2013-01-19 00:46:00,-3.0,-5.0,30.38,NW,320,3.0,9.0,92,-99.99,,,-99.99,,2013-01-19 07:46:00,
2013-01-19 00:56:00,-3.0,-5.0,30.38,NW,320,6.0,6.0,92,-99.99,,,-99.99,,2013-01-19 07:56:00,
2013-01-19 01:06:00,-4.0,-6.0,30.39,North,10,6.0,6.0,91,-99.99,,,-99.99,,2013-01-19 08:06:00,
2013-01-19 01:16:00,-4.0,-6.0,30.39,North,0,3.0,6.0,91,-99.99,,,-99.99,,2013-01-19 08:16:00,
2013-01-19 01:26:00,-4.0,-5.0,30.39,NNW,340,8.0,9.0,92,-99.99,,,-99.99,,2013-01-19 08:26:00,
2013-01-19 01:36:00,-4.0,-5.0,30.39,NW,320,3.0,7.0,92,-99.99,,,-99.99,,2013-01-19 08:36:00,
2013-01-19 01:41:00,-4.0,-5.0,30.39,NW,320,0.0,7.0,92,-99.99,,,-99.99,,2013-01-19 08:41:00,
2013-01-19 01:56:00,-4.0,-6.0,30.39,NNW,340,7.0,9.0,92,-99.99,,,-99.99,,2013-01-19 08:56:00,
2013-01-19 02:01:00,-4.0,-6.0,30.39,NNW,340,7.0,9.0,92,-99.99,,,-99.99,,2013-01-19 09:01:00,
2013-01-19 02:11:00,-4.0,-6.0,30.40,WNW,300,8.0,8.0,93,-99.99,,,-99.99,,2013-01-19 09:11:00,
2013-01-19 02:21:00,-4.0,-6.0,30.40,NNW,340,11.0,12.0,93,-99.99,,,-99.99,,2013-01-19 09:21:00,
2013-01-19 02:26:00,-4.0,-5.0,30.40,North,10,7.0,11.0,94,-99.99,,,-99.99,,2013-01-19 09:26:00,
2013-01-19 02:36:00,-4.0,-6.0,30.40,NNW,330,5.0,6.0,92,-99.99,,,-99.99,,2013-01-19 09:36:00,
2013-01-19 02:41:00,-5.0,-6.0,30.39,NNW,330,8.0,11.0,92,-99.99,,,-99.99,,2013-01-19 09:41:00,
2013-01-19 02:46:00,-4.0,-5.0,30.39,NNE,20,5.0,10.0,94,-99.99,,,-99.99,,2013-01-19 09:46:00,
2013-01-19 02:51:00,-4.0,-5.0,30.39,NNE,20,6.0,9.0,94,-99.99,,,-99.99,,2013-01-19 09:51:00,
2013-01-19 02:56:00,-4.0,-6.0,30.40,NW,320,0.0,7.0,93,-99.99,,,-99.99,,2013-01-19 09:56:00,
2013-01-19 03:01:00,-4.0,-6.0,30.40,WNW,300,10.0,10.0,93,-99.99,,,-99.99,,2013-01-19 10:01:00,
2013-01-19 03:16:00,-4.0,-6.0,30.40,NNE,20,5.0,10.0,93,-99.99,,,-99.99,,2013-01-19 10:16:00,
2013-01-19 03:26:00,-4.0,-6.0,30.40,NNE,20,3.0,0.0,94,-99.99,,,-99.99,,2013-01-19 10:26:00,
2013-01-19 03:31:00,-4.0,-6.0,30.39,NNE,20,0.0,4.0,94,-99.99,,,-99.99,,2013-01-19 10:31:00,
2013-01-19 03:41:00,-5.0,-6.0,30.40,NNE,20,6.0,8.0,93,-99.99,,,-99.99,,2013-01-19 10:41:00,
2013-01-19 03:46:00,-5.0,-7.0,30.40,North,10,10.0,10.0,93,-99.99,,,-99.99,,2013-01-19 10:46:00,
2013-01-19 03:56:00,-5.0,-6.0,30.40,North,10,5.0,10.0,94,-99.99,,,-99.99,,2013-01-19 10:56:00,
2013-01-19 04:06:00,-4.0,-5.0,30.40,NW,310,6.0,6.0,95,-99.99,,,-99.99,,2013-01-19 11:06:00,
2013-01-19 05:51:00,-6.0,-8.0,30.43,NNW,340,6.0,8.0,93,-99.99,,,-99.99,,2013-01-19 12:51:00,
2013-01-19 05:56:00,-6.0,-8.0,30.43,North,350,8.0,8.0,93,-99.99,,,-99.99,,2013-01-19 12:56:00,
2013-01-19 06:01:00,-6.0,-8.0,30.43,North,350,6.0,9.0,93,-99.99,,,-99.99,,2013-01-19 13:01:00,
2013-01-19 06:06:00,-7.0,-8.0,30.42,North,350,4.0,6.0,93,-99.99,,,-99.99,,2013-01-19 13:06:00,
2013-01-19 06:11:00,-7.0,-8.0,30.42,North,350,6.0,6.0,93,-99.99,,,-99.99,,2013-01-19 13:11:00,
2013-01-19 06:16:00,-7.0,-8.0,30.42,NNW,340,8.0,9.0,93,-99.99,,,-99.99,,2013-01-19 13:16:00,
2013-01-19 06:21:00,-6.0,-7.0,30.42,North,350,3.0,9.0,94,-99.99,,,-99.99,,2013-01-19 13:21:00,
2013-01-19 06:31:00,-7.0,-8.0,30.42,North,10,5.0,7.0,93,-99.99,,,-99.99,,2013-01-19 13:31:00,
2013-01-19 06:41:00,-6.0,-8.0,30.43,North,10,0.0,5.0,94,-99.99,,,-99.99,,2013-01-19 13:41:00,
2013-01-19 06:51:00,-7.0,-8.0,30.43,North,10,0.0,0.0,93,-99.99,,,-99.99,,2013-01-19 13:51:00,
2013-01-19 07:01:00,-7.0,-9.0,30.44,North,10,0.0,0.0,93,-99.99,,,-99.99,,2013-01-19 14:01:00,
2013-01-19 07:11:00,-7.0,-9.0,30.45,North,10,0.0,0.0,93,-99.99,,,-99.99,,2013-01-19 14:11:00,
2013-01-19 07:16:00,-7.0,-8.0,30.45,North,10,0.0,0.0,93,-99.99,,,-99.99,,2013-01-19 14:16:00,
2013-01-19 07:26:00,-7.0,-8.0,30.45,North,10,0.0,0.0,94,-99.99,,,-99.99,,2013-01-19 14:26:00,
2013-01-19 07:36:00,-7.0,-9.0,30.45,North,10,0.0,0.0,93,-99.99,,,-99.99,,2013-01-19 14:36:00,
2013-01-19 07:41:00,-7.0,-9.0,30.45,North,10,0.0,0.0,94,-99.99,,,-99.99,,2013-01-19 14:41:00,
2013-01-19 07:51:00,-8.0,-9.0,30.45,North,10,0.0,0.0,93,-99.99,,,-99.99,,2013-01-19 14:51:00,
2013-01-19 07:56:00,-8.0,-9.0,30.46,North,10,0.0,0.0,93,-99.99,,,-99.99,,2013-01-19 14:56:00,
2013-01-19 08:01:00,-8.0,-9.0,30.46,North,10,0.0,0.0,93,-99.99,,,-99.99,,2013-01-19 15:01:00,
2013-01-19 08:06:00,-8.0,-9.0,30.47,North,10,0.0,0.0,94,-99.99,,,-99.99,,2013-01-19 15:06:00,
2013-01-19 08:11:00,-7.0,-9.0,30.47,North,10,0.0,0.0,94,-99.99,,,-99.99,,2013-01-19 15:11:00,
2013-01-19 08:16:00,-7.0,-8.0,30.48,North,10,0.0,0.0,94,-99.99,,,-99.99,,2013-01-19 15:16:00,
2013-01-19 08:21:00,-7.0,-8.0,30.48,North,10,0.0,0.0,94,-99.99,,,-99.99,,2013-01-19 15:21:00,
2013-01-19 08:26:00,-7.0,-8.0,30.48,North,10,0.0,0.0,94,-99.99,,,-99.99,,2013-01-19 15:26:00,
2013-01-19 08:36:00,-6.0,-7.0,30.48,North,10,0.0,0.0,94,-99.99,,,-99.99,,2013-01-19 15:36:00,
2013-01-19 08:46:00,-5.0,-7.0,30.49,North,10,0.0,0.0,93,-99.99,,,-99.99,,2013-01-19 15:46:00,
2013-01-19 08:51:00,-5.0,-6.0,30.50,North,10,0.0,0.0,94,-99.99,,,-99.99,,2013-01-19 15:51:00,
2013-01-19 08:56:00,-4.0,-5.0,30.50,North,10,0.0,0.0,94,-99.99,,,-99.99,,2013-01-19 15:56:00,
2013-01-19 09:01:00,-3.0,-5.0,30.51,North,10,0.0,0.0,94,-99.99,,,-99.99,,2013-01-19 16:01:00,
2013-01-19 09:11:00,-2.0,-3.0,30.53,North,10,0.0,0.0,94,-99.99,,,-99.99,,2013-01-19 16:11:00,
2013-01-19 09:21:00,-1.0,-2.0,30.53,North,10,0.0,0.0,93,-99.99,,,-99.99,,2013-01-19 16:21:00,
2013-01-19 09:31:00,0.0,-2.0,30.53,North,10,0.0,0.0,92,-99.99,,,-99.99,,2013-01-19 16:31:00,
2013-01-19 09:36:00,0.0,-1.0,30.53,NW,310,7.0,8.0,92,-99.99,,,-99.99,,2013-01-19 16:36:00,
2013-01-19 09:46:00,1.0,-1.0,30.54,North,0,5.0,8.0,92,-99.99,,,-99.99,,2013-01-19 16:46:00,
2013-01-19 09:51:00,2.0,0.0,30.54,NNE,20,3.0,7.0,92,-99.99,,,-99.99,,2013-01-19 16:51:00,
2013-01-19 09:56:00,2.0,0.0,30.55,West,280,5.0,5.0,91,-99.99,,,-99.99,,2013-01-19 16:56:00,
2013-01-19 10:01:00,3.0,1.0,30.55,WNW,300,3.0,6.0,91,-99.99,,,-99.99,,2013-01-19 17:01:00,
2013-01-19 10:06:00,3.0,1.0,30.55,NW,310,7.0,7.0,91,-99.99,,,-99.99,,2013-01-19 17:06:00,
2013-01-19 10:16:00,4.0,2.0,30.55,West,280,3.0,9.0,92,-99.99,,,-99.99,,2013-01-19 17:16:00,
2013-01-19 10:26:00,5.0,3.0,30.54,NW,320,5.0,7.0,92,-99.99,,,-99.99,,2013-01-19 17:26:00,
2013-01-19 10:31:00,6.0,4.0,30.54,NW,310,4.0,7.0,92,-99.99,,,-99.99,,2013-01-19 17:31:00,
2013-01-19 10:41:00,7.0,5.0,30.54,NE,40,5.0,6.0,91,-99.99,,,-99.99,,2013-01-19 17:41:00,
2013-01-19 11:21:00,13.0,10.0,30.52,NW,310,7.0,8.0,88,-99.99,,,-99.99,,2013-01-19 18:21:00,
2013-01-19 11:26:00,14.0,10.0,30.52,NW,310,7.0,10.0,86,-99.99,,,-99.99,,2013-01-19 18:26:00,
2013-01-19 11:46:00,16.0,12.0,30.50,NNW,330,7.0,7.0,82,-99.99,,,-99.99,,2013-01-19 18:46:00,
2013-01-19 12:06:00,17.0,12.0,30.48,North,350,7.0,7.0,79,-99.99,,,-99.99,,2013-01-19 19:06:00,
2013-01-19 12:36:00,18.0,13.0,30.46,North,0,3.0,5.0,78,-99.99,,,-99.99,,2013-01-19 19:36:00,
2013-01-19 12:51:00,19.0,13.0,30.46,South,190,5.0,5.0,76,-99.99,,,-99.99,,2013-01-19 19:51:00,
2013-01-19 13:01:00,20.0,14.0,30.45,South,180,4.0,6.0,77,-99.99,,,-99.99,,2013-01-19 20:01:00,
2013-01-19 13:21:00,20.0,13.0,30.45,ESE,120,0.0,7.0,75,-99.99,,,-99.99,,2013-01-19 20:21:00,
2013-01-19 13:41:00,20.0,13.0,30.45,ENE,60,5.0,10.0,76,-99.99,,,-99.99,,2013-01-19 20:41:00,
2013-01-19 13:46:00,20.0,13.0,30.45,SE,130,11.0,11.0,75,-99.99,,,-99.99,,2013-01-19 20:46:00,
2013-01-19 14:26:00,20.0,13.0,30.46,SE,130,9.0,10.0,77,-99.99,,,-99.99,,2013-01-19 21:26:00,
2013-01-19 14:46:00,20.0,14.0,30.47,East,100,0.0,6.0,75,-99.99,,,-99.99,,2013-01-19 21:46:00,
2013-01-19 15:06:00,21.0,14.0,30.47,SE,140,3.0,6.0,74,-99.99,,,-99.99,,2013-01-19 22:06:00,
2013-01-19 15:16:00,21.0,14.0,30.48,NE,40,0.0,6.0,74,-99.99,,,-99.99,,2013-01-19 22:16:00,
2013-01-19 16:06:00,21.0,15.0,30.49,East,90,0.0,0.0,76,-99.99,,,-99.99,,2013-01-19 23:06:00,
2013-01-19 16:21:00,20.0,14.0,30.49,WNW,300,5.0,5.0,75,-99.99,,,-99.99,,2013-01-19 23:21:00,
2013-01-19 16:41:00,17.0,10.0,30.48,North,10,0.0,5.0,75,-99.99,,,-99.99,,2013-01-19 23:41:00,
2013-01-19 16:51:00,15.0,9.0,30.48,North,10,0.0,0.0,76,-99.99,,,-99.99,,2013-01-19 23:51:00,
2013-01-19 16:56:00,14.0,9.0,30.48,WNW,290,0.0,5.0,78,-99.99,,,-99.99,,2013-01-19 23:56:00,
2013-01-19 17:01:00,14.0,9.0,30.48,WNW,290,0.0,5.0,80,-99.99,,,-99.99,,2013-01-20 00:01:00,
2013-01-19 17:16:00,11.0,6.0,30.47,NE,50,2.0,8.0,79,-99.99,,,-99.99,,2013-01-20 00:16:00,
2013-01-19 18:11:00,8.0,4.0,30.46,NNW,330,4.0,7.0,85,-99.99,,,-99.99,,2013-01-20 01:11:00,
2013-01-19 18:21:00,7.0,4.0,30.47,North,0,6.0,11.0,87,-99.99,,,-99.99,,2013-01-20 01:21:00,
2013-01-19 18:36:00,6.0,2.0,30.46,NNW,340,6.0,9.0,86,-99.99,,,-99.99,,2013-01-20 01:36:00,
2013-01-19 18:41:00,5.0,2.0,30.46,West,270,7.0,8.0,87,-99.99,,,-99.99,,2013-01-20 01:41:00,
2013-01-19 18:56:00,6.0,4.0,30.46,NW,320,9.0,11.0,90,-99.99,,,-99.99,,2013-01-20 01:56:00,
2013-01-19 19:21:00,5.0,2.0,30.46,NW,320,10.0,11.0,89,-99.99,,,-99.99,,2013-01-20 02:21:00,
2013-01-19 19:31:00,5.0,3.0,30.46,North,0,6.0,10.0,91,-99.99,,,-99.99,,2013-01-20 02:31:00,
2013-01-19 19:51:00,5.0,3.0,30.46,NNE,20,10.0,12.0,90,-99.99,,,-99.99,,2013-01-20 02:51:00,
2013-01-19 19:56:00,5.0,3.0,30.46,NW,320,5.0,10.0,90,-99.99,,,-99.99,,2013-01-20 02:56:00,
2013-01-19 20:11:00,5.0,3.0,30.46,NNW,340,10.0,10.0,91,-99.99,,,-99.99,,2013-01-20 03:11:00,
2013-01-19 20:16:00,5.0,3.0,30.46,WNW,300,7.0,9.0,92,-99.99,,,-99.99,,2013-01-20 03:16:00,
2013-01-19 20:36:00,4.0,3.0,30.46,North,350,12.0,13.0,93,-99.99,,,-99.99,,2013-01-20 03:36:00,
2013-01-19 20:56:00,6.0,4.0,30.46,North,350,10.0,12.0,92,-99.99,,,-99.99,,2013-01-20 03:56:00,
2013-01-19 21:01:00,6.0,4.0,30.46,NW,320,0.0,9.0,91,-99.99,,,-99.99,,2013-01-20 04:01:00,
2013-01-19 21:11:00,4.0,1.0,30.46,NNW,340,6.0,8.0,87,-99.99,,,-99.99,,2013-01-20 04:11:00,
2013-01-19 21:16:00,3.0,0.0,30.46,WNW,290,0.0,8.0,88,-99.99,,,-99.99,,2013-01-20 04:16:00,
2013-01-19 21:31:00,2.0,0.0,30.46,NW,320,0.0,5.0,90,-99.99,,,-99.99,,2013-01-20 04:31:00,
2013-01-19 21:41:00,2.0,0.0,30.46,NW,320,7.0,7.0,90,-99.99,,,-99.99,,2013-01-20 04:41:00,
2013-01-19 22:01:00,1.0,-1.0,30.46,North,0,9.0,12.0,91,-99.99,,,-99.99,,2013-01-20 05:01:00,
2013-01-19 22:06:00,1.0,-1.0,30.46,WNW,300,2.0,12.0,92,-99.99,,,-99.99,,2013-01-20 05:06:00,
2013-01-19 22:16:00,0.0,-2.0,30.46,NW,310,0.0,7.0,90,-99.99,,,-99.99,,2013-01-20 05:16:00,
2013-01-19 22:26:00,0.0,-2.0,30.46,North,10,7.0,10.0,92,-99.99,,,-99.99,,2013-01-20 05:26:00,
2013-01-19 22:31:00,1.0,-1.0,30.46,North,350,8.0,9.0,92,-99.99,,,-99.99,,2013-01-20 05:31:00,
2013-01-19 22:41:00,0.0,-2.0,30.46,WNW,300,5.0,8.0,91,-99.99,,,-99.99,,2013-01-20 05:41:00,
2013-01-19 22:46:00,0.0,-2.0,30.46,North,0,10.0,10.0,91,-99.99,,,-99.99,,2013-01-20 05:46:00,
2013-01-19 22:56:00,0.0,-2.0,30.46,NW,310,6.0,11.0,92,-99.99,,,-99.99,,2013-01-20 05:56:00,
2013-01-19 23:06:00,0.0,-2.0,30.46,WNW,300,7.0,8.0,92,-99.99,,,-99.99,,2013-01-20 06:06:00,
2013-01-19 23:11:00,0.0,-2.0,30.46,NNW,330,7.0,9.0,92,-99.99,,,-99.99,,2013-01-20 06:11:00,
2013-01-19 23:21:00,0.0,-2.0,30.46,North,0,5.0,9.0,92,-99.99,,,-99.99,,2013-01-20 06:21:00,
2013-01-19 23:26:00,0.0,-2.0,30.46,North,350,0.0,8.0,92,-99.99,,,-99.99,,2013-01-20 06:26:00,
2013-01-19 23:36:00,0.0,-2.0,30.46,NNW,330,11.0,11.0,91,-99.99,,,-99.99,,2013-01-20 06:36:00,
2013-01-19 23:46:00,0.0,-2.0,30.45,North,350,7.0,10.0,92,-99.99,,,-99.99,,2013-01-20 06:46:00,
2013-01-19 23:51:00,0.0,-2.0,30.45,North,350,9.0,9.0,92,-99.99,,,-99.99,,2013-01-20 06:51:00,
2013-01-19 23:56:00,-1.0,-3.0,30.45,NNW,330,6.0,9.0,91,-99.99,,,-99.99,,2013-01-20 06:56:00,